Terminal Aerodrome Forecast
Issued by NWS Bismarck, ND

Home | Current Version | Previous Version | Graphics & Text | Print | Product List | Glossary On
Versions: 1 2 3 4 5 6 7 8 9 10 11 12 13
161
FTUS43 KBIS 201725
TAFISN
TAF
KISN 201725Z 2018/2118 04004KT P6SM SCT120
     FM210300 07006KT P6SM SCT200
     FM210900 20004KT P6SM SCT200
     FM211500 30009KT P6SM SCT200=

USA.gov is the U.S. government's official web portal to all federal, state and local government web resources and services.